Time;durP1;ratioP1;P1;durP2;ratioP2;P2;SDS_P1;SDS_P2;PMS_P1;PMS_P2;Temp;Humidity;BMP_temperature;BMP_pressure;BME280_temperature;BME280_humidity;BME280_pressure;Samples;Min_cycle;Max_cycle;Signal;HPM_P1;HPM_P2
2022/06/15 00:00:16;;;;;;;;;;;;;;;24.36;33.75;99693.91;5094933;28;19966;-69
2022/06/15 00:02:41;;;;;;;;;;;;;;;24.36;33.62;99687.66;5094460;28;20377;-69
2022/06/15 00:05:06;;;;;;;;;;;;;;;24.35;33.72;99686.84;5093609;28;19955;-69
2022/06/15 00:07:32;;;;;;;;;;;;;;;24.34;33.76;99690.69;5094364;28;19917;-69
2022/06/15 00:09:57;;;;;;;;;;;;;;;24.35;33.64;99677.84;5093979;28;19916;-69
2022/06/15 00:12:22;;;;;;;;;;;;;;;24.35;33.62;99686.03;5094379;28;19985;-69
2022/06/15 00:14:48;;;;;;;;;;;;;;;24.34;33.63;99685.22;5094771;28;19916;-69
2022/06/15 00:17:13;;;;;;;;;;;;;;;24.34;33.51;99689.88;5093975;28;20283;-69
2022/06/15 00:19:38;;;;;;;;;;;;;;;24.33;33.51;99688.25;5093903;28;19917;-68
2022/06/15 00:22:03;;;;;;;;;;;;;;;24.34;33.35;99681.69;5094155;28;19923;-69
2022/06/15 00:24:29;;;;;;;;;;;;;;;24.34;33.52;99687.16;5094184;28;20437;-69
2022/06/15 00:26:54;;;;;;;;;;;;;;;24.33;33.44;99682.78;5094064;28;19939;-69
2022/06/15 00:29:20;;;;;;;;;;;;;;;24.33;33.21;99682.78;5094147;28;19920;-69
2022/06/15 00:31:45;;;;;;;;;;;;;;;24.33;33.16;99680.06;5094026;28;19916;-69
2022/06/15 00:34:10;;;;;;;;;;;;;;;24.33;33.21;99674.59;5094258;28;20379;-69
2022/06/15 00:36:35;;;;;;;;;;;;;;;24.32;33.25;99681.19;5093812;28;19948;-69
2022/06/15 00:39:02;;;;;;;;;;;;;;;24.31;33.12;99685.81;5093970;28;19919;-69
2022/06/15 00:41:29;;;;;;;;;;;;;;;24.32;33.32;99683.91;5094257;28;19926;-69
2022/06/15 00:43:54;;;;;;;;;;;;;;;24.32;33.24;99686.66;5093984;28;19931;-69
2022/06/15 00:46:22;;;;;;;;;;;;;;;24.31;33.19;99683.06;5093922;28;20282;-69
2022/06/15 00:48:52;;;;;;;;;;;;;;;24.31;33.24;99685.81;5093908;28;19920;-69
2022/06/15 00:51:17;;;;;;;;;;;;;;;24.31;33.00;99690.47;5093830;28;19916;-69
2022/06/15 00:53:42;;;;;;;;;;;;;;;24.31;32.84;99685.81;5093752;28;20023;-69
2022/06/15 00:56:08;;;;;;;;;;;;;;;24.30;32.86;99677.91;5108742;28;19930;-69
2022/06/15 00:58:34;;;;;;;;;;;;;;;24.30;32.77;99677.91;5113899;28;20003;-69
2022/06/15 01:00:59;;;;;;;;;;;;;;;24.30;32.84;99672.44;5114362;28;19947;-69
2022/06/15 01:03:24;;;;;;;;;;;;;;;24.30;32.76;99667.00;5113785;28;20003;-69
2022/06/15 01:05:55;;;;;;;;;;;;;;;24.31;32.96;99674.09;5114094;28;20278;-69
2022/06/15 01:08:21;;;;;;;;;;;;;;;24.29;32.94;99674.38;5112564;28;19912;-69
2022/06/15 01:10:57;;;;;;;;;;;;;;;24.29;32.96;99671.66;5114548;28;20080;-69
2022/06/15 01:13:22;;;;;;;;;;;;;;;24.28;32.83;99669.22;5112718;28;19912;-69
2022/06/15 01:16:01;;;;;;;;;;;;;;;24.29;32.82;99677.09;5116596;28;20337;-69
2022/06/15 01:18:44;;;;;;;;;;;;;;;24.27;32.77;99673.88;5116718;28;19916;-69
2022/06/15 01:21:18;;;;;;;;;;;;;;;24.27;32.88;99675.78;5116377;28;20369;-69
2022/06/15 01:24:01;;;;;;;;;;;;;;;24.26;32.85;99669.50;5117026;28;19915;-69
2022/06/15 01:26:45;;;;;;;;;;;;;;;24.27;32.84;99673.06;5117892;28;19939;-70
2022/06/15 01:29:29;;;;;;;;;;;;;;;24.26;32.75;99666.78;5117548;28;19916;-70
2022/06/15 01:32:10;;;;;;;;;;;;;;;24.25;33.18;99664.34;5117524;28;19916;-69
2022/06/15 01:34:38;;;;;;;;;;;;;;;24.24;33.16;99660.81;5117540;28;20378;-69
2022/06/15 01:37:10;;;;;;;;;;;;;;;24.24;33.15;99658.06;5115855;28;19973;-69
2022/06/15 01:39:35;;;;;;;;;;;;;;;24.25;33.06;99661.59;5117623;28;19921;-69
2022/06/15 01:42:04;;;;;;;;;;;;;;;24.25;32.96;99659.72;5117588;28;19977;-69
2022/06/15 01:44:30;;;;;;;;;;;;;;;24.25;32.96;99659.72;5116170;28;20393;-69
2022/06/15 01:46:55;;;;;;;;;;;;;;;24.26;33.08;99660.50;5117519;28;19916;-69
2022/06/15 01:49:22;;;;;;;;;;;;;;;24.25;33.16;99659.72;5116221;28;20281;-69
2022/06/15 01:51:47;;;;;;;;;;;;;;;24.26;33.06;99655.06;5116182;28;19915;-69
2022/06/15 01:54:18;;;;;;;;;;;;;;;24.26;32.94;99652.31;5115978;28;20415;-69
2022/06/15 01:56:44;;;;;;;;;;;;;;;24.26;33.22;99655.06;5076657;28;19917;-69
2022/06/15 01:59:30;;;;;;;;;;;;;;;24.25;33.33;99654.25;5109121;28;20015;-69
2022/06/15 02:02:14;;;;;;;;;;;;;;;24.25;33.28;99653.41;5108877;28;19920;-69
2022/06/15 02:04:41;;;;;;;;;;;;;;;24.24;33.16;99646.34;5076543;28;19916;-69
2022/06/15 02:07:19;;;;;;;;;;;;;;;24.24;33.47;99651.81;5076515;28;19917;-69
2022/06/15 02:09:45;;;;;;;;;;;;;;;24.24;33.47;99651.81;5076580;28;19951;-69
2022/06/15 02:12:10;;;;;;;;;;;;;;;24.24;33.38;99652.63;5076506;28;19917;-69
2022/06/15 02:14:38;;;;;;;;;;;;;;;24.25;33.13;99658.88;5109223;28;19917;-69
2022/06/15 02:17:05;;;;;;;;;;;;;;;24.24;33.25;99657.28;5109296;28;19922;-69
2022/06/15 02:19:41;;;;;;;;;;;;;;;24.25;33.19;99658.88;5108473;28;20355;-69
2022/06/15 02:22:08;;;;;;;;;;;;;;;24.25;33.40;99658.88;5109023;28;19922;-69
2022/06/15 02:24:34;;;;;;;;;;;;;;;24.23;33.16;99650.19;5108675;28;19970;-69
2022/06/15 02:26:59;;;;;;;;;;;;;;;24.23;33.24;99650.19;5108212;28;20275;-69
2022/06/15 02:29:24;;;;;;;;;;;;;;;24.23;33.47;99658.38;5108577;28;20015;-69
2022/06/15 02:31:50;;;;;;;;;;;;;;;24.23;33.21;99658.38;5076106;28;20309;-69
2022/06/15 02:34:15;;;;;;;;;;;;;;;24.24;33.29;99662.72;5108314;28;19938;-69
2022/06/15 02:36:40;;;;;;;;;;;;;;;24.23;33.16;99661.09;5075720;28;20293;-69
2022/06/15 02:39:07;;;;;;;;;;;;;;;24.22;33.22;99659.50;5076337;28;19928;-69
2022/06/15 02:41:32;;;;;;;;;;;;;;;24.23;33.23;99655.63;5108001;28;20278;-69
2022/06/15 02:43:58;;;;;;;;;;;;;;;24.22;33.17;99664.94;5075754;28;19923;-69
2022/06/15 02:46:23;;;;;;;;;;;;;;;24.22;33.13;99665.75;5108340;28;20324;-69
2022/06/15 02:48:48;;;;;;;;;;;;;;;24.22;33.26;99664.94;5075632;28;19999;-69
2022/06/15 02:51:26;;;;;;;;;;;;;;;24.21;33.00;99664.13;5075293;28;19917;-69
2022/06/15 02:53:51;;;;;;;;;;;;;;;24.21;33.18;99658.66;5075203;28;19927;-69
2022/06/15 02:56:17;;;;;;;;;;;;;;;24.21;33.25;99666.06;5140967;27;19985;-69
2022/06/15 02:58:43;;;;;;;;;;;;;;;24.21;33.18;99669.59;5114494;28;19951;-69
2022/06/15 03:01:09;;;;;;;;;;;;;;;24.19;33.27;99664.41;5115747;28;20006;-69
2022/06/15 03:03:34;;;;;;;;;;;;;;;24.23;33.09;99666.56;5115930;28;19970;-69
2022/06/15 03:06:00;;;;;;;;;;;;;;;24.25;33.21;99664.34;5116096;28;20386;-69
2022/06/15 03:08:25;;;;;;;;;;;;;;;24.28;32.97;99661.03;5116105;28;19939;-69
2022/06/15 03:10:51;;;;;;;;;;;;;;;24.34;32.89;99662.56;5118680;28;19923;-69
2022/06/15 03:13:16;;;;;;;;;;;;;;;24.38;32.71;99669.06;5115937;28;20373;-69
2022/06/15 03:15:41;;;;;;;;;;;;;;;24.41;32.42;99663.00;5115960;28;19919;-69
2022/06/15 03:18:06;;;;;;;;;;;;;;;24.44;32.53;99662.41;5115732;28;20377;-70
2022/06/15 03:20:32;;;;;;;;;;;;;;;24.49;32.33;99662.34;5116035;28;19916;-69
2022/06/15 03:22:57;;;;;;;;;;;;;;;24.53;32.35;99663.34;5116045;28;20369;-69
2022/06/15 03:25:22;;;;;;;;;;;;;;;24.54;32.27;99651.34;5116146;28;19916;-69
2022/06/15 03:27:48;;;;;;;;;;;;;;;24.58;32.24;99656.19;5115684;28;20010;-69
2022/06/15 03:30:13;;;;;;;;;;;;;;;24.59;32.10;99664.09;5116220;28;19922;-69
2022/06/15 03:32:38;;;;;;;;;;;;;;;24.64;32.01;99660.47;5116157;28;20362;-69
2022/06/15 03:35:04;;;;;;;;;;;;;;;24.67;31.77;99662.63;5114335;28;20281;-69
2022/06/15 03:37:29;;;;;;;;;;;;;;;24.70;31.98;99659.28;5115333;28;19920;-69
2022/06/15 03:39:55;;;;;;;;;;;;;;;24.74;31.57;99652.09;5115228;28;19915;-69
2022/06/15 03:42:22;;;;;;;;;;;;;;;24.76;31.73;99652.63;5116412;28;20354;-69
2022/06/15 03:44:47;;;;;;;;;;;;;;;24.79;31.72;99654.75;5116263;28;19916;-69
2022/06/15 03:47:17;;;;;;;;;;;;;;;24.79;31.44;99654.75;5115522;28;19916;-69
2022/06/15 03:49:49;;;;;;;;;;;;;;;24.81;31.69;99655.25;5116109;28;19943;-69
2022/06/15 03:52:14;;;;;;;;;;;;;;;24.83;31.50;99663.97;5116136;28;19915;-69
2022/06/15 03:54:40;;;;;;;;;;;;;;;24.89;31.50;99661.97;5113341;28;19927;-69
2022/06/15 03:57:05;;;;;;;;;;;;;;;24.90;31.67;99656.16;5096389;28;20378;-69
2022/06/15 03:59:30;;;;;;;;;;;;;;;24.91;31.39;99655.06;5095388;28;20427;-69
2022/06/15 04:01:56;;;;;;;;;;;;;;;24.92;31.51;99653.97;5096080;28;19920;-69
2022/06/15 04:04:21;;;;;;;;;;;;;;;24.93;31.58;99652.03;5096879;28;19920;-68
2022/06/15 04:06:46;;;;;;;;;;;;;;;24.93;31.36;99647.38;5094955;28;19916;-67
2022/06/15 04:09:12;;;;;;;;;;;;;;;24.97;31.44;99654.97;5094576;28;19916;-68
2022/06/15 04:14:21;;;;;;;;;;;;;;;25.02;31.31;99649.41;5094298;28;19923;-69
2022/06/15 04:16:53;;;;;;;;;;;;;;;25.01;31.50;99655.97;5093761;28;19916;-69
2022/06/15 04:19:19;;;;;;;;;;;;;;;25.06;31.30;99656.72;5094975;28;19920;-69
2022/06/15 04:21:44;;;;;;;;;;;;;;;25.06;31.48;99655.88;5094025;28;19923;-68
2022/06/15 04:24:11;;;;;;;;;;;;;;;25.09;31.26;99656.13;5093695;28;19916;-70
2022/06/15 04:26:37;;;;;;;;;;;;;;;25.14;31.41;99654.41;5094211;28;19923;-68
2022/06/15 04:29:02;;;;;;;;;;;;;;;25.14;31.13;99648.94;5093983;28;19916;-68
2022/06/15 04:31:27;;;;;;;;;;;;;;;25.14;31.34;99649.72;5093761;28;19916;-69
2022/06/15 04:33:53;;;;;;;;;;;;;;;25.13;31.40;99650.84;5093759;28;19916;-69
2022/06/15 04:36:18;;;;;;;;;;;;;;;25.17;30.99;99643.66;5093379;28;20294;-69
2022/06/15 04:38:43;;;;;;;;;;;;;;;25.17;31.25;99651.88;5091968;28;19931;-70
2022/06/15 04:41:08;;;;;;;;;;;;;;;25.22;31.04;99640.81;5093977;28;19916;-70
2022/06/15 04:43:34;;;;;;;;;;;;;;;25.23;30.90;99642.47;5093849;28;19997;-69
2022/06/15 04:46:00;;;;;;;;;;;;;;;25.26;31.18;99644.59;5093971;28;20023;-69
2022/06/15 04:48:25;;;;;;;;;;;;;;;25.27;30.92;99639.97;5093814;28;19916;-68
2022/06/15 04:50:51;;;;;;;;;;;;;;;25.27;30.92;99632.56;5093367;28;19931;-68
2022/06/15 04:53:16;;;;;;;;;;;;;;;25.30;31.21;99640.16;5093634;28;19916;-68
2022/06/15 04:55:41;;;;;;;;;;;;;;;25.31;30.86;99635.47;5103603;28;19919;-69
2022/06/15 04:58:07;;;;;;;;;;;;;;;25.32;30.92;99634.38;5114220;28;19923;-69
2022/06/15 05:00:35;;;;;;;;;;;;;;;25.34;30.92;99634.88;5114665;28;20405;-68
2022/06/15 05:03:02;;;;;;;;;;;;;;;25.36;31.19;99634.59;5113976;28;19920;-68
2022/06/15 05:05:28;;;;;;;;;;;;;;;25.33;30.89;99635.19;5113577;28;20003;-68
2022/06/15 05:07:53;;;;;;;;;;;;;;;25.38;31.22;99635.09;5113523;28;19923;-69
2022/06/15 05:10:19;;;;;;;;;;;;;;;25.40;31.03;99638.31;5114108;28;20234;-69
2022/06/15 05:12:45;;;;;;;;;;;;;;;25.41;31.20;99638.00;5113445;28;20207;-69
2022/06/15 05:15:10;;;;;;;;;;;;;;;25.44;31.03;99633.84;5113608;28;19923;-69
2022/06/15 05:17:36;;;;;;;;;;;;;;;25.44;31.21;99636.56;5113843;28;19916;-69
2022/06/15 05:20:01;;;;;;;;;;;;;;;25.51;30.87;99637.00;5113857;28;20285;-69
2022/06/15 05:22:27;;;;;;;;;;;;;;;25.52;31.18;99635.88;5113362;28;20297;-69
2022/06/15 05:24:52;;;;;;;;;;;;;;;25.40;31.10;99632.84;5113312;28;19955;-70
2022/06/15 05:27:17;;;;;;;;;;;;;;;25.44;31.11;99633.84;5113766;28;20017;-68
2022/06/15 05:29:43;;;;;;;;;;;;;;;25.51;30.90;99634.28;5113711;28;20316;-69
2022/06/15 05:32:08;;;;;;;;;;;;;;;25.46;30.98;99631.63;5113329;28;19969;-69
2022/06/15 05:34:33;;;;;;;;;;;;;;;25.51;31.10;99634.28;5113465;28;20007;-69
2022/06/15 05:36:59;;;;;;;;;;;;;;;25.57;30.65;99640.44;5112935;28;19980;-69
2022/06/15 05:39:24;;;;;;;;;;;;;;;25.63;30.91;99636.44;5113348;28;19916;-69
2022/06/15 05:41:50;;;;;;;;;;;;;;;25.62;31.07;99635.66;5112900;28;20025;-68
2022/06/15 05:47:14;;;;;;;;;;;;;;;25.67;30.81;99638.28;5090455;28;19934;-69
2022/06/15 05:49:39;;;;;;;;;;;;;;;25.79;30.51;99647.91;5090604;28;20375;-69
2022/06/15 05:52:04;;;;;;;;;;;;;;;25.63;30.67;99636.44;5090332;28;19917;-71
2022/06/15 05:54:29;;;;;;;;;;;;;;;25.67;30.93;99638.28;5090764;28;19916;-71
2022/06/15 05:56:55;;;;;;;;;;;;;;;25.73;30.59;99643.66;5071875;28;20377;-71
2022/06/15 05:59:20;;;;;;;;;;;;;;;25.75;30.85;99639.50;5070198;28;20012;-70
2022/06/15 06:01:45;;;;;;;;;;;;;;;25.76;31.03;99632.09;5072040;28;20414;-70
2022/06/15 06:04:11;;;;;;;;;;;;;;;25.80;30.44;99638.56;5073694;28;19921;-70
2022/06/15 06:06:36;;;;;;;;;;;;;;;25.89;30.70;99650.41;5073593;28;19966;-69
2022/06/15 06:09:02;;;;;;;;;;;;;;;25.82;30.42;99644.56;5073516;28;20379;-71
2022/06/15 06:11:28;;;;;;;;;;;;;;;25.91;30.42;99637.22;5073825;28;19920;-70
2022/06/15 06:13:53;;;;;;;;;;;;;;;25.96;30.16;99639.06;5073785;28;19970;-70
2022/06/15 06:16:19;;;;;;;;;;;;;;;25.94;30.30;99644.84;5073593;28;19927;-70
2022/06/15 06:18:44;;;;;;;;;;;;;;;25.95;30.06;99640.19;5073716;28;20401;-69
2022/06/15 06:21:09;;;;;;;;;;;;;;;25.98;30.09;99656.78;5073450;28;20375;-71
2022/06/15 06:23:35;;;;;;;;;;;;;;;26.03;29.84;99645.72;5092315;28;19916;-71
2022/06/15 06:26:00;;;;;;;;;;;;;;;26.00;30.13;99640.88;5096410;28;19916;-69
2022/06/15 06:28:27;;;;;;;;;;;;;;;25.99;30.48;99642.00;5096343;28;20352;-71
2022/06/15 06:30:52;;;;;;;;;;;;;;;26.09;29.94;99640.13;5096326;28;20011;-70
2022/06/15 06:33:18;;;;;;;;;;;;;;;26.07;30.05;99639.66;5095867;28;20046;-70
2022/06/15 06:35:43;;;;;;;;;;;;;;;26.00;30.13;99629.13;5095511;28;19922;-71
2022/06/15 06:38:09;;;;;;;;;;;;;;;25.91;30.20;99631.75;5095437;28;20378;-71
2022/06/15 06:40:34;;;;;;;;;;;;;;;25.99;29.96;99628.31;5096264;28;20061;-72
2022/06/15 06:43:00;;;;;;;;;;;;;;;25.97;30.30;99630.53;5096254;28;19985;-71
2022/06/15 06:45:25;;;;;;;;;;;;;;;26.02;29.93;99633.16;5096472;28;20254;-70
2022/06/15 06:47:50;;;;;;;;;;;;;;;26.06;30.09;99636.09;5096058;28;20468;-72
2022/06/15 06:50:16;;;;;;;;;;;;;;;26.19;29.94;99626.22;5095521;28;19970;-71
2022/06/15 06:52:42;;;;;;;;;;;;;;;26.24;29.69;99626.88;5095629;28;19989;-71
2022/06/15 06:55:08;;;;;;;;;;;;;;;26.23;29.73;99627.19;5099405;28;19961;-72
2022/06/15 06:57:33;;;;;;;;;;;;;;;26.35;29.32;99641.13;5116119;28;20315;-72
2022/06/15 06:59:58;;;;;;;;;;;;;;;26.42;29.27;99624.25;5116156;28;20371;-71
2022/06/15 07:02:23;;;;;;;;;;;;;;;26.40;29.05;99621.84;5116609;28;19954;-71
2022/06/15 07:04:49;;;;;;;;;;;;;;;26.37;29.43;99621.66;5115991;28;19927;-73
2022/06/15 07:07:14;;;;;;;;;;;;;;;26.51;29.14;99618.84;5116552;28;20064;-73
2022/06/15 07:09:40;;;;;;;;;;;;;;;26.60;28.69;99615.03;5115468;28;19959;-74
2022/06/15 07:12:05;;;;;;;;;;;;;;;26.63;28.40;99612.81;5115324;28;20290;-73
2022/06/15 07:14:30;;;;;;;;;;;;;;;26.69;28.65;99623.34;5114669;28;19916;-74
2022/06/15 07:16:56;;;;;;;;;;;;;;;26.72;28.64;99614.50;5116931;28;19922;-73
2022/06/15 07:19:21;;;;;;;;;;;;;;;26.75;28.38;99621.25;5115488;28;19920;-74
2022/06/15 07:21:46;;;;;;;;;;;;;;;26.75;28.40;99610.28;5115952;28;19922;-73
2022/06/15 07:24:12;;;;;;;;;;;;;;;26.77;28.32;99619.84;5115635;28;19945;-74
2022/06/15 07:26:41;;;;;;;;;;;;;;;26.67;28.49;99609.16;5115712;28;19927;-73
2022/06/15 07:29:07;;;;;;;;;;;;;;;26.71;28.38;99604.63;5115634;28;20002;-74
2022/06/15 07:31:33;;;;;;;;;;;;;;;26.77;28.72;99608.88;5115719;28;20303;-74
2022/06/15 07:33:59;;;;;;;;;;;;;;;26.68;28.40;99601.72;5114650;28;19922;-74
2022/06/15 07:36:24;;;;;;;;;;;;;;;26.70;28.54;99603.03;5113637;28;19916;-73
2022/06/15 07:38:50;;;;;;;;;;;;;;;26.79;28.21;99603.88;5114451;28;20010;-74
2022/06/15 07:41:16;;;;;;;;;;;;;;;26.81;28.15;99613.72;5114363;28;20044;-79
2022/06/15 07:43:41;;;;;;;;;;;;;;;26.74;28.29;99609.50;5116877;28;19920;-73
2022/06/15 07:46:07;;;;;;;;;;;;;;;26.88;28.05;99600.38;5115487;28;19916;-74
2022/06/15 07:51:28;;;;;;;;;;;;;;;26.56;28.82;99605.00;5092480;28;19916;-74
2022/06/15 07:53:54;;;;;;;;;;;;;;;26.51;28.58;99605.97;5075562;28;19939;-75
2022/06/15 07:56:19;;;;;;;;;;;;;;;26.63;28.42;99610.91;5079150;28;20445;-74
2022/06/15 07:58:45;;;;;;;;;;;;;;;26.81;28.23;99608.25;5055395;28;19920;-73
2022/06/15 08:01:21;;;;;;;;;;;;;;;26.82;27.95;99607.09;5074040;28;19924;-75
2022/06/15 08:03:47;;;;;;;;;;;;;;;26.80;27.64;99612.91;5076493;28;19959;-74
2022/06/15 08:06:13;;;;;;;;;;;;;;;26.85;27.83;99617.44;5073638;28;19917;-73
2022/06/15 08:08:39;;;;;;;;;;;;;;;26.83;27.54;99612.28;5056842;28;19970;-73
2022/06/15 08:11:04;;;;;;;;;;;;;;;26.84;27.24;99613.06;5075134;28;19917;-74
2022/06/15 08:13:29;;;;;;;;;;;;;;;26.95;26.99;99619.91;5072779;28;19959;-74
2022/06/15 08:15:54;;;;;;;;;;;;;;;26.95;26.74;99615.22;5071517;28;20352;-74
2022/06/15 08:18:21;;;;;;;;;;;;;;;26.96;26.82;99616.84;5071146;28;19917;-74
2022/06/15 08:20:47;;;;;;;;;;;;;;;27.15;25.97;99616.59;5071545;28;19917;-73
2022/06/15 08:23:17;;;;;;;;;;;;;;;27.17;25.91;99616.28;5055101;28;19923;-74
2022/06/15 08:25:45;;;;;;;;;;;;;;;27.21;25.88;99619.22;5071543;28;19927;-74
2022/06/15 08:28:11;;;;;;;;;;;;;;;27.22;26.14;99612.59;5082286;28;20255;-73
2022/06/15 08:30:37;;;;;;;;;;;;;;;27.27;25.72;99618.75;5093071;28;20370;-74
2022/06/15 08:33:03;;;;;;;;;;;;;;;27.23;25.87;99608.72;5098956;28;20006;-79
2022/06/15 08:35:28;;;;;;;;;;;;;;;27.30;25.47;99614.56;5106373;28;19926;-77
2022/06/15 08:37:53;;;;;;;;;;;;;;;27.37;25.33;99609.44;5093268;28;19920;-79
2022/06/15 08:40:19;;;;;;;;;;;;;;;27.32;25.51;99618.63;5094298;28;19924;-78
2022/06/15 08:42:57;;;;;;;;;;;;;;;27.34;25.39;99632.03;5094207;28;20325;-78
2022/06/15 08:45:22;;;;;;;;;;;;;;;27.33;25.16;99619.44;5092599;28;19927;-78
2022/06/15 08:47:55;;;;;;;;;;;;;;;27.37;25.15;99609.44;5094043;28;19916;-78
2022/06/15 08:50:24;;;;;;;;;;;;;;;27.38;24.82;99619.28;5092887;28;19916;-78
2022/06/15 08:53:10;;;;;;;;;;;;;;;27.39;24.94;99620.91;5092537;28;19961;-78
2022/06/15 08:55:37;;;;;;;;;;;;;;;27.36;24.96;99610.56;5097880;28;19915;-78
2022/06/15 08:58:08;;;;;;;;;;;;;;;27.44;24.68;99609.78;5112180;28;19916;-77
2022/06/15 09:00:34;;;;;;;;;;;;;;;27.33;24.69;99627.66;5112036;28;20012;-77
2022/06/15 09:02:59;;;;;;;;;;;;;;;27.40;24.74;99629.94;5112357;28;19920;-79
2022/06/15 09:05:36;;;;;;;;;;;;;;;27.46;24.52;99626.75;5113586;28;19916;-77
2022/06/15 09:08:05;;;;;;;;;;;;;;;27.51;24.46;99621.09;5113670;28;19920;-78
2022/06/15 09:10:30;;;;;;;;;;;;;;;27.57;24.44;99616.25;5113061;28;19941;-77
2022/06/15 09:13:13;;;;;;;;;;;;;;;27.61;24.33;99616.41;5114040;28;19927;-78
2022/06/15 09:15:42;;;;;;;;;;;;;;;27.60;24.17;99623.06;5113537;28;19916;-74
2022/06/15 09:18:11;;;;;;;;;;;;;;;27.61;24.23;99627.41;5111758;28;19920;-74
2022/06/15 09:20:37;;;;;;;;;;;;;;;27.70;24.14;99628.25;5111495;28;20277;-74
2022/06/15 09:23:07;;;;;;;;;;;;;;;27.70;24.03;99634.53;5112213;28;19920;-73
2022/06/15 09:25:35;;;;;;;;;;;;;;;27.79;24.02;99626.31;5112654;28;20244;-73
2022/06/15 09:28:06;;;;;;;;;;;;;;;27.84;23.84;99628.09;5113086;28;20281;-74
2022/06/15 09:30:33;;;;;;;;;;;;;;;27.88;23.88;99631.78;5113968;28;19951;-73
2022/06/15 09:33:00;;;;;;;;;;;;;;;27.87;23.77;99624.69;5114682;28;19995;-74
2022/06/15 09:35:31;;;;;;;;;;;;;;;27.87;23.76;99620.00;5113580;28;19988;-74
2022/06/15 09:37:56;;;;;;;;;;;;;;;27.93;23.75;99620.69;5114408;28;19927;-73
2022/06/15 09:40:22;;;;;;;;;;;;;;;27.99;23.90;99619.38;5117109;28;19919;-72
2022/06/15 09:43:26;;;;;;;;;;;;;;;27.87;24.00;99620.00;5115685;28;19923;-73
2022/06/15 09:45:54;;;;;;;;;;;;;;;28.03;23.60;99623.13;5074467;28;19927;-73
2022/06/15 09:48:31;;;;;;;;;;;;;;;28.08;23.44;99622.16;5074623;28;19938;-73
2022/06/15 09:50:58;;;;;;;;;;;;;;;27.81;23.93;99624.03;5074370;28;19962;-73
2022/06/15 09:53:41;;;;;;;;;;;;;;;28.06;23.57;99638.13;5074398;28;19939;-72
2022/06/15 09:56:08;;;;;;;;;;;;;;;28.07;23.57;99631.50;5073876;28;19917;-72
2022/06/15 09:58:35;;;;;;;;;;;;;;;27.88;23.95;99640.03;5057144;28;19922;-72
2022/06/15 10:01:00;;;;;;;;;;;;;;;27.90;23.83;99626.78;5057698;28;19932;-72
2022/06/15 10:03:36;;;;;;;;;;;;;;;27.82;24.00;99631.16;5074790;28;19912;-73
2022/06/15 10:06:05;;;;;;;;;;;;;;;27.89;23.83;99626.00;5074413;28;19928;-73
2022/06/15 10:08:30;;;;;;;;;;;;;;;27.87;23.68;99625.50;5057731;28;20008;-71
2022/06/15 10:10:56;;;;;;;;;;;;;;;27.99;23.54;99618.59;5074320;28;20029;-68
2022/06/15 10:13:26;;;;;;;;;;;;;;;27.90;23.90;99621.28;5074329;28;20278;-69
2022/06/15 10:15:55;;;;;;;;;;;;;;;28.01;23.66;99622.63;5078175;28;19923;-69
2022/06/15 10:18:31;;;;;;;;;;;;;;;27.69;24.02;99632.09;5096202;28;19916;-70
2022/06/15 10:21:08;;;;;;;;;;;;;;;27.95;23.67;99637.66;5096362;28;19916;-70
2022/06/15 10:23:51;;;;;;;;;;;;;;;27.68;24.34;99641.44;5094718;28;19923;-69
2022/06/15 10:26:23;;;;;;;;;;;;;;;27.82;23.78;99642.13;5096228;28;19916;-69
2022/06/15 10:28:49;;;;;;;;;;;;;;;27.56;24.30;99633.03;5096737;28;19985;-70
2022/06/15 10:31:14;;;;;;;;;;;;;;;27.80;23.68;99643.56;5097153;28;19920;-69
2022/06/15 10:33:44;;;;;;;;;;;;;;;27.93;23.48;99634.41;5096967;28;19966;-69
2022/06/15 10:36:16;;;;;;;;;;;;;;;27.90;23.56;99632.28;5097071;28;20369;-68
2022/06/15 10:38:42;;;;;;;;;;;;;;;27.86;23.53;99626.63;5095801;28;19920;-70
2022/06/15 10:43:52;;;;;;;;;;;;;;;27.85;23.57;99643.41;5095805;28;20011;-68
2022/06/15 10:46:17;;;;;;;;;;;;;;;27.81;23.52;99629.53;5094660;28;19956;-69
2022/06/15 10:48:46;;;;;;;;;;;;;;;27.84;23.32;99634.38;5095793;28;19970;-70
2022/06/15 10:51:28;;;;;;;;;;;;;;;27.77;23.61;99633.22;5094607;28;19920;-70
2022/06/15 10:54:12;;;;;;;;;;;;;;;27.78;23.53;99648.59;5094216;28;19962;-70
2022/06/15 11:02:22;;;;;;;;;;;;;;;27.65;23.72;99626.44;5115905;28;19927;-70
2022/06/15 11:04:47;;;;;;;;;;;;;;;27.65;23.77;99620.97;5114608;28;19943;-68
2022/06/15 11:07:15;;;;;;;;;;;;;;;27.60;23.97;99645.00;5116378;28;20275;-69
2022/06/15 11:09:59;;;;;;;;;;;;;;;27.77;23.65;99639.56;5116097;28;19973;-69
2022/06/15 11:12:26;;;;;;;;;;;;;;;27.41;24.30;99635.13;5114846;28;20011;-69
2022/06/15 11:14:51;;;;;;;;;;;;;;;27.76;23.73;99629.69;5114778;28;19938;-70
2022/06/15 11:20:03;;;;;;;;;;;;;;;27.77;23.59;99628.56;5115565;28;19927;-69
2022/06/15 11:22:28;;;;;;;;;;;;;;;27.81;23.58;99617.75;5115575;28;20418;-69
2022/06/15 11:24:56;;;;;;;;;;;;;;;27.81;23.47;99629.53;5114342;28;20003;-69
2022/06/15 11:27:29;;;;;;;;;;;;;;;27.70;23.67;99622.75;5114059;28;20343;-69
2022/06/15 11:30:04;;;;;;;;;;;;;;;27.69;23.59;99621.13;5115551;28;20075;-69
2022/06/15 11:32:32;;;;;;;;;;;;;;;27.60;24.03;99631.28;5115467;28;19916;-68
2022/06/15 11:35:12;;;;;;;;;;;;;;;27.69;23.86;99632.09;5115648;28;20010;-67
2022/06/15 11:37:41;;;;;;;;;;;;;;;27.57;23.90;99627.22;5115339;28;19927;-69
2022/06/15 11:40:32;;;;;;;;;;;;;;;27.55;23.94;99624.00;5116539;28;19923;-68
2022/06/15 11:42:58;;;;;;;;;;;;;;;27.56;23.83;99633.03;5113542;28;19916;-68
2022/06/15 11:45:46;;;;;;;;;;;;;;;27.46;24.16;99629.47;5114051;28;20286;-69
2022/06/15 11:48:24;;;;;;;;;;;;;;;27.26;24.31;99641.81;5072288;28;19931;-68
2022/06/15 11:51:01;;;;;;;;;;;;;;;27.36;24.21;99635.25;5055350;28;19917;-70
2022/06/15 11:53:34;;;;;;;;;;;;;;;27.42;24.17;99633.97;5055131;28;19939;-70
2022/06/15 11:56:11;;;;;;;;;;;;;;;27.45;23.99;99646.25;5055286;28;19956;-67
2022/06/15 11:58:45;;;;;;;;;;;;;;;27.43;24.10;99646.56;5071413;28;19958;-70
2022/06/15 12:01:15;;;;;;;;;;;;;;;27.33;24.13;99642.19;5071473;28;19931;-71
2022/06/15 12:03:40;;;;;;;;;;;;;;;27.29;24.44;99641.22;5055371;28;20001;-71
2022/06/15 12:06:06;;;;;;;;;;;;;;;27.34;24.22;99638.31;5072069;28;19968;-70
2022/06/15 12:08:42;;;;;;;;;;;;;;;27.38;24.23;99643.19;5071915;28;19916;-71
2022/06/15 12:12:37;;;;;;;;;;;;;;;27.28;24.30;99649.75;5071824;28;19939;-70
2022/06/15 12:14:00;;;;;;;;;;;;;;;27.31;24.32;99649.91;5071813;28;20286;-70
2022/06/15 12:16:38;;;;;;;;;;;;;;;27.30;24.13;99652.97;5054894;28;19999;-71
2022/06/15 12:19:12;;;;;;;;;;;;;;;27.28;24.26;99633.28;5071413;28;19920;-71
2022/06/15 12:21:58;;;;;;;;;;;;;;;27.07;24.33;99649.50;5071719;28;19946;-71
2022/06/15 12:24:32;;;;;;;;;;;;;;;27.10;24.23;99652.41;5075171;28;19916;-72
2022/06/15 12:27:02;;;;;;;;;;;;;;;27.14;24.10;99650.63;5094178;28;20235;-71
2022/06/15 12:29:35;;;;;;;;;;;;;;;27.14;24.12;99647.88;5094259;28;19916;-72
2022/06/15 12:32:02;;;;;;;;;;;;;;;27.16;24.25;99659.38;5094622;28;19922;-71
2022/06/15 12:34:58;;;;;;;;;;;;;;;27.15;24.22;99655.00;5094436;28;19955;-71
2022/06/15 12:37:42;;;;;;;;;;;;;;;27.16;23.85;99658.53;5051745;28;19998;-71
2022/06/15 12:40:08;;;;;;;;;;;;;;;27.00;24.42;99654.63;5051620;28;20019;-72
2022/06/15 12:42:33;;;;;;;;;;;;;;;27.05;24.19;99652.53;5052305;28;19963;-70
2022/06/15 12:45:05;;;;;;;;;;;;;;;26.99;24.02;99642.81;5053143;28;19917;-72
2022/06/15 12:47:30;;;;;;;;;;;;;;;27.04;24.12;99658.34;5035549;28;19917;-71
2022/06/15 12:50:05;;;;;;;;;;;;;;;27.11;24.03;99672.41;5035356;28;19917;-71
2022/06/15 12:52:32;;;;;;;;;;;;;;;27.04;24.11;99670.09;5052466;28;19951;-71
2022/06/15 12:55:13;;;;;;;;;;;;;;;27.12;23.96;99671.28;5053067;28;19917;-71
2022/06/15 12:57:41;;;;;;;;;;;;;;;27.12;23.90;99663.06;5052124;28;20410;-71
2022/06/15 13:00:12;;;;;;;;;;;;;;;27.13;23.93;99664.66;5052129;28;20294;-70
2022/06/15 13:02:43;;;;;;;;;;;;;;;27.10;23.80;99663.38;5053119;28;19921;-71
2022/06/15 13:05:11;;;;;;;;;;;;;;;27.07;23.69;99676.91;5051928;28;19917;-69
2022/06/15 13:07:38;;;;;;;;;;;;;;;27.02;23.52;99675.09;5051696;28;19917;-69
2022/06/15 13:10:12;;;;;;;;;;;;;;;27.02;23.39;99680.59;5052002;28;20003;-70
2022/06/15 13:12:39;;;;;;;;;;;;;;;26.98;23.57;99680.41;5056358;28;20449;-70